Cosco Nagoya — 3ESJ8 — position and weather

sailwx.info

Track history (hours):
 
Tides and Currents Weather Stations Pressure Air Temp Water Temp Dewpoint Dewpoint Depression Visibility Wind Speed Wind Dir Waves Ship Positions

Cosco Nagoya

Last reported at 2015-Mar-31 04:33 UTC. Time now 2015-Mar-31 05:24 UTC.
Position N 53°54' E 007°43'.

Length 260 m; draft 10.8 m.

Type: Cargo ship. MMSI: 370320000.

Date/timePositionNaut miles runAvg speedWind from/ knotsBaromVisibWave heightAir tempDewpointWater temp
2015-Mar-31 04:33N 53°54' E 007°43'3 3.0
2015-Mar-31 03:33N 53°54' E 007°38'1110.9
2015-Mar-31 02:34N 53°52' E 007°20'1716.5
2015-Mar-31 01:33N 53°50' E 006°52'1716.5
2015-Mar-31 00:31N 53°46' E 006°24'1616.6
2015-Mar-30 23:33N 53°41' E 005°58'1716.8
2015-Mar-30 22:33N 53°35' E 005°32'1717.0
2015-Mar-30 21:34N 53°30' E 005°05'1716.5
2015-Mar-30 20:33N 53°21' E 004°41'1717.0
2015-Mar-30 19:33N 53°06' E 004°27'1717.1
2015-Mar-30 18:33N 52°51' E 004°14'1916.7
2015-Mar-30 17:25N 52°36' E 003°55'1416.4
2015-Mar-30 16:33N 52°27' E 003°38'1615.4
2015-Mar-30 15:31N 52°12' E 003°26'1616.6
2015-Mar-30 14:33N 51°56' E 003°23'1414.4
2015-Mar-30 13:33N 51°43' E 003°13'1514.6
2015-Mar-30 12:33N 51°30' E 003°04'8 8.0
2015-Mar-30 11:33N 51°25' E 003°13'1413.7
2015-Mar-30 10:34N 51°25' E 003°35'8 8.1
2015-Mar-30 09:33N 51°21' E 003°47'9 8.5
2015-Mar-30 08:33N 51°26' E 003°58'8 7.9
2015-Mar-30 07:33N 51°24' E 004°11'5 4.8
2015-Mar-30 06:34N 51°21' E 004°16'0 0.0
2015-Mar-30 05:33N 51°21' E 004°16'0 0.0
2015-Mar-30 04:33N 51°21' E 004°16'0 0.0
2015-Mar-30 03:33N 51°21' E 004°16'0 0.0
2015-Mar-30 02:33N 51°21' E 004°16'0 0.0
2015-Mar-30 01:33N 51°21' E 004°16'0 0.0
2015-Mar-30 00:33N 51°21' E 004°16'0 0.0
2015-Mar-29 23:33N 51°21' E 004°16'0 0.0
2015-Mar-29 22:33N 51°21' E 004°16'0 0.0
2015-Mar-29 21:33N 51°21' E 004°16'0 0.0
2015-Mar-29 20:33N 51°21' E 004°16'0 0.0
2015-Mar-29 19:34N 51°21' E 004°16'0 0.0
2015-Mar-29 18:33N 51°21' E 004°16'4 3.5
2015-Mar-29 17:34N 51°23' E 004°13'9 9.2
2015-Mar-29 16:33N 51°26' E 003°58'1111.5
2015-Mar-29 15:34N 51°26' E 003°40'1313.4
2015-Mar-29 14:33N 51°24' E 003°19'1817.6
2015-Mar-29 13:33N 51°22' E 002°51'1010.1
2015-Mar-29 12:34N 51°22' E 002°35'1211.8
2015-Mar-29 11:34N 51°18' E 002°17'1717.1
2015-Mar-29 10:34N 51°11' E 001°53'2120.6
2015-Mar-29 09:33N 50°56' E 001°29'2320.7
2015-Mar-29 08:28N 50°37' E 001°10'1921.1
2015-Mar-29 07:33N 50°29' E 000°43'2621.4
2015-Mar-29 06:22N 50°21' E 000°05'  
Track history (hours):
 
Tides and Currents Weather Stations Pressure Air Temp Water Temp Dewpoint Dewpoint Depression Visibility Wind Speed Wind Dir Waves Ship Positions

Cosco Nagoya

Last reported at 2015-Mar-31 04:33 UTC. Time now 2015-Mar-31 05:24 UTC.
Position N 53°54' E 007°43'.

Length 260 m; draft 10.8 m.

Type: Cargo ship. MMSI: 370320000.

Date/timePositionNaut miles runAvg speedWind from/ knotsBaromVisibWave heightAir tempDewpointWater temp
2015-Mar-31 04:33N 53°54' E 007°43'3 3.0
2015-Mar-31 03:33N 53°54' E 007°38'1110.9
2015-Mar-31 02:34N 53°52' E 007°20'1716.5
2015-Mar-31 01:33N 53°50' E 006°52'1716.5
2015-Mar-31 00:31N 53°46' E 006°24'1616.6
2015-Mar-30 23:33N 53°41' E 005°58'1716.8
2015-Mar-30 22:33N 53°35' E 005°32'1717.0
2015-Mar-30 21:34N 53°30' E 005°05'1716.5
2015-Mar-30 20:33N 53°21' E 004°41'1717.0
2015-Mar-30 19:33N 53°06' E 004°27'1717.1
2015-Mar-30 18:33N 52°51' E 004°14'1916.7
2015-Mar-30 17:25N 52°36' E 003°55'1416.4
2015-Mar-30 16:33N 52°27' E 003°38'1615.4
2015-Mar-30 15:31N 52°12' E 003°26'1616.6
2015-Mar-30 14:33N 51°56' E 003°23'1414.4
2015-Mar-30 13:33N 51°43' E 003°13'1514.6
2015-Mar-30 12:33N 51°30' E 003°04'8 8.0
2015-Mar-30 11:33N 51°25' E 003°13'1413.7
2015-Mar-30 10:34N 51°25' E 003°35'8 8.1
2015-Mar-30 09:33N 51°21' E 003°47'9 8.5
2015-Mar-30 08:33N 51°26' E 003°58'8 7.9
2015-Mar-30 07:33N 51°24' E 004°11'5 4.8
2015-Mar-30 06:34N 51°21' E 004°16'0 0.0
2015-Mar-30 05:33N 51°21' E 004°16'0 0.0
2015-Mar-30 04:33N 51°21' E 004°16'0 0.0
2015-Mar-30 03:33N 51°21' E 004°16'0 0.0
2015-Mar-30 02:33N 51°21' E 004°16'0 0.0
2015-Mar-30 01:33N 51°21' E 004°16'0 0.0
2015-Mar-30 00:33N 51°21' E 004°16'0 0.0
2015-Mar-29 23:33N 51°21' E 004°16'0 0.0
2015-Mar-29 22:33N 51°21' E 004°16'0 0.0
2015-Mar-29 21:33N 51°21' E 004°16'0 0.0
2015-Mar-29 20:33N 51°21' E 004°16'0 0.0
2015-Mar-29 19:34N 51°21' E 004°16'0 0.0
2015-Mar-29 18:33N 51°21' E 004°16'4 3.5
2015-Mar-29 17:34N 51°23' E 004°13'9 9.2
2015-Mar-29 16:33N 51°26' E 003°58'1111.5
2015-Mar-29 15:34N 51°26' E 003°40'1313.4
2015-Mar-29 14:33N 51°24' E 003°19'1817.6
2015-Mar-29 13:33N 51°22' E 002°51'1010.1
2015-Mar-29 12:34N 51°22' E 002°35'1211.8
2015-Mar-29 11:34N 51°18' E 002°17'1717.1
2015-Mar-29 10:34N 51°11' E 001°53'2120.6
2015-Mar-29 09:33N 50°56' E 001°29'2320.7
2015-Mar-29 08:28N 50°37' E 001°10'1921.1
2015-Mar-29 07:33N 50°29' E 000°43'2621.4
2015-Mar-29 06:22N 50°21' E 000°05'  

Dump ship's entire track history